Time;durP1;ratioP1;P1;durP2;ratioP2;P2;SDS_P1;SDS_P2;PMS_P1;PMS_P2;Temp;Humidity;BMP_temperature;BMP_pressure;BME280_temperature;BME280_humidity;BME280_pressure;Samples;Min_cycle;Max_cycle;Signal;HPM_P1;HPM_P2
2023/10/06 00:00:56;;;;;;;14.77;4.70;;;10.60;99.90;;;;;;4996341;28;20120;-79
2023/10/06 00:03:24;;;;;;;9.18;4.22;;;10.60;99.90;;;;;;4996102;28;20031;-79
2023/10/06 00:05:55;;;;;;;12.10;4.90;;;10.60;99.90;;;;;;4993300;28;20019;-79
2023/10/06 00:08:21;;;;;;;12.07;4.50;;;10.60;99.90;;;;;;4996611;28;20022;-80
2023/10/06 00:10:54;;;;;;;13.63;4.53;;;10.60;99.90;;;;;;4995864;28;20034;-80
2023/10/06 00:13:29;;;;;;;11.75;5.05;;;10.50;99.90;;;;;;4990856;28;20113;-79
2023/10/06 00:15:55;;;;;;;14.80;4.75;;;10.50;99.90;;;;;;4990360;28;20565;-80
2023/10/06 00:18:27;;;;;;;14.23;4.35;;;10.50;99.90;;;;;;4995614;28;20023;-79
2023/10/06 00:21:05;;;;;;;13.35;5.18;;;10.50;99.90;;;;;;4988223;28;20158;-79
2023/10/06 00:23:31;;;;;;;12.68;5.15;;;10.40;99.90;;;;;;4989965;28;20027;-80
2023/10/06 00:26:00;;;;;;;12.10;4.68;;;10.40;99.90;;;;;;4993920;28;20110;-80
2023/10/06 00:28:32;;;;;;;10.48;4.75;;;10.40;99.90;;;;;;4996647;28;20053;-77
2023/10/06 00:31:06;;;;;;;13.07;6.43;;;10.30;99.90;;;;;;4992292;28;20062;-78
2023/10/06 00:33:37;;;;;;;;;;;10.30;99.90;;;;;;4995942;28;20596;-78
2023/10/06 00:36:17;;;;;;;16.35;6.85;;;10.30;99.90;;;;;;4994754;28;19913;-78
2023/10/06 00:38:47;;;;;;;14.93;6.68;;;10.30;99.90;;;;;;4993033;28;20044;-78
2023/10/06 00:41:20;;;;;;;16.52;6.20;;;10.20;99.90;;;;;;4992049;28;20018;-78
2023/10/06 00:43:56;;;;;;;11.00;5.95;;;10.10;99.90;;;;;;4994091;28;20049;-78
2023/10/06 00:46:28;;;;;;;9.55;5.55;;;10.10;99.90;;;;;;4994832;28;20050;-78
2023/10/06 00:48:59;;;;;;;17.00;6.22;;;10.10;99.90;;;;;;4991611;28;20361;-77
2023/10/06 00:51:31;;;;;;;14.20;6.15;;;10.10;99.90;;;;;;4992192;28;20391;-79
2023/10/06 00:53:59;;;;;;;16.35;7.53;;;10.10;99.90;;;;;;5009457;28;20108;-78
2023/10/06 00:56:28;;;;;;;15.68;6.50;;;10.00;99.90;;;;;;4996327;28;20023;-79
2023/10/06 00:58:57;;;;;;;16.83;6.35;;;10.00;99.90;;;;;;4994980;28;20031;-79
2023/10/06 01:01:35;;;;;;;12.20;5.85;;;10.00;99.90;;;;;;4996971;28;20160;-79
2023/10/06 01:04:00;;;;;;;10.13;5.32;;;10.00;99.90;;;;;;4992277;28;20062;-80
2023/10/06 01:06:33;;;;;;;10.50;5.20;;;10.00;99.90;;;;;;4979876;28;20030;-79
2023/10/06 01:09:15;;;;;;;;;;;;;;;;;;;;;
2023/10/06 01:11:50;;;;;;;9.10;5.10;;;10.00;99.90;;;;;;4996690;28;20503;-78
2023/10/06 01:14:26;;;;;;;8.23;4.65;;;10.00;99.90;;;;;;4989895;28;20026;-77
2023/10/06 01:19:36;;;;;;;15.65;5.10;;;9.90;99.90;;;;;;4991757;28;20126;-78
2023/10/06 01:22:24;;;;;;;12.25;4.85;;;9.90;99.90;;;;;;4987766;28;20362;-78
2023/10/06 01:24:59;;;;;;;11.35;5.22;;;9.80;99.90;;;;;;5006311;28;20054;-77
2023/10/06 01:27:28;;;;;;;13.45;5.75;;;9.80;99.90;;;;;;4993231;28;20596;-77
2023/10/06 01:30:17;;;;;;;10.63;5.03;;;9.80;99.90;;;;;;4989830;28;20030;-77
2023/10/06 01:32:50;;;;;;;11.65;5.03;;;9.80;99.90;;;;;;4992423;28;20034;-77
2023/10/06 01:35:18;;;;;;;9.10;5.37;;;9.80;99.90;;;;;;4991285;28;20034;-77
2023/10/06 01:37:44;;;;;;;14.52;5.78;;;9.80;99.90;;;;;;4991857;28;20393;-77
2023/10/06 01:43:00;;;;;;;13.10;6.07;;;9.70;99.90;;;;;;5004206;28;20038;-77
2023/10/06 01:45:28;;;;;;;14.20;6.03;;;9.70;99.90;;;;;;4992186;28;20019;-77
2023/10/06 01:48:22;;;;;;;13.85;5.55;;;9.60;99.90;;;;;;4987979;28;20117;-75
2023/10/06 01:50:48;;;;;;;14.10;5.90;;;9.60;99.90;;;;;;4995353;28;20034;-78
2023/10/06 01:53:20;;;;;;;13.95;5.90;;;9.60;99.90;;;;;;4992564;28;20045;-78
2023/10/06 01:55:52;;;;;;;14.00;6.05;;;9.50;99.90;;;;;;4991809;28;20030;-78
2023/10/06 01:58:18;;;;;;;11.40;5.45;;;9.50;99.90;;;;;;4991878;28;20022;-77
2023/10/06 02:00:50;;;;;;;13.82;5.25;;;9.50;99.90;;;;;;4995544;28;20033;-78
2023/10/06 02:03:21;;;;;;;9.07;4.63;;;9.40;99.90;;;;;;4996442;28;20046;-78
2023/10/06 02:05:47;;;;;;;9.75;4.97;;;9.40;99.90;;;;;;4993431;28;20022;-78
2023/10/06 02:08:22;;;;;;;12.43;5.38;;;9.40;99.90;;;;;;4995613;28;20495;-78
2023/10/06 02:10:55;;;;;;;11.88;5.60;;;9.30;99.90;;;;;;4991066;28;20023;-79
2023/10/06 02:13:29;;;;;;;11.30;5.28;;;9.30;99.90;;;;;;4992463;28;20156;-78
2023/10/06 02:15:58;;;;;;;10.25;5.10;;;9.30;99.90;;;;;;4996662;28;20032;-78
2023/10/06 02:18:35;;;;;;;10.73;4.72;;;9.30;99.90;;;;;;4994538;28;20066;-78
2023/10/06 02:21:04;;;;;;;15.15;5.13;;;9.30;99.90;;;;;;4996973;28;20030;-79
2023/10/06 02:23:30;;;;;;;9.30;4.72;;;9.30;99.90;;;;;;4996362;28;20026;-78
2023/10/06 02:26:06;;;;;;;10.82;4.75;;;9.20;99.90;;;;;;4995211;28;20029;-78
2023/10/06 02:28:32;;;;;;;9.90;4.35;;;9.20;99.90;;;;;;4991905;28;20064;-80
2023/10/06 02:31:03;;;;;;;12.63;5.35;;;9.10;99.90;;;;;;4996943;28;20030;-78
2023/10/06 02:33:29;;;;;;;13.90;5.45;;;9.10;99.90;;;;;;4995359;28;20026;-79
2023/10/06 02:36:03;;;;;;;9.50;4.70;;;9.10;99.90;;;;;;4990977;28;20081;-78
2023/10/06 02:38:42;;;;;;;10.82;5.35;;;9.00;99.90;;;;;;4988577;28;20515;-78
2023/10/06 02:41:25;;;;;;;10.45;5.10;;;8.90;99.90;;;;;;4989990;28;20060;-78
2023/10/06 02:44:07;;;;;;;11.82;5.28;;;8.90;99.90;;;;;;4995393;28;20045;-79
2023/10/06 02:46:32;;;;;;;10.13;5.15;;;8.90;99.90;;;;;;4991598;28;20030;-79
2023/10/06 02:49:06;;;;;;;14.55;5.70;;;8.80;99.90;;;;;;4993709;28;20481;-78
2023/10/06 02:51:47;;;;;;;12.50;5.05;;;8.80;99.90;;;;;;4995526;28;20042;-78
2023/10/06 02:56:56;;;;;;;15.73;5.70;;;8.80;99.90;;;;;;4993699;28;20053;-77
2023/10/06 02:59:34;;;;;;;13.98;5.47;;;8.70;99.90;;;;;;4993312;28;20575;-77
2023/10/06 03:02:06;;;;;;;11.88;5.78;;;8.80;99.90;;;;;;4993407;28;20025;-77
2023/10/06 03:04:35;;;;;;;14.55;5.55;;;8.70;99.90;;;;;;4993420;28;20026;-76
2023/10/06 03:07:04;;;;;;;15.10;5.88;;;8.70;99.90;;;;;;4993552;28;20030;-77
2023/10/06 03:09:43;;;;;;;11.73;6.03;;;8.70;99.90;;;;;;4993556;28;20366;-77
2023/10/06 03:12:15;;;;;;;12.52;5.20;;;8.70;99.90;;;;;;4993250;28;20030;-77
2023/10/06 03:14:42;;;;;;;14.57;6.90;;;8.70;99.90;;;;;;4992312;28;20045;-77
2023/10/06 03:17:12;;;;;;;11.60;5.80;;;8.70;99.90;;;;;;4993695;28;20029;-77
2023/10/06 03:20:08;;;;;;;12.38;6.00;;;8.70;99.90;;;;;;4992457;28;20402;-77
2023/10/06 03:22:28;;;;;;;11.70;5.93;;;8.70;99.90;;;;;;4992876;28;20123;-77
2023/10/06 03:25:00;;;;;;;14.00;6.20;;;8.70;99.90;;;;;;4993229;28;20072;-77
2023/10/06 03:27:29;;;;;;;15.27;6.10;;;8.60;99.90;;;;;;4992211;28;20026;-77
2023/10/06 03:30:07;;;;;;;13.77;5.80;;;8.60;99.90;;;;;;4992081;28;20029;-77
2023/10/06 03:32:49;;;;;;;14.27;6.35;;;8.60;99.90;;;;;;4992932;28;20437;-77
2023/10/06 03:35:57;;;;;;;11.25;5.45;;;8.60;99.90;;;;;;4991564;28;20026;-77
2023/10/06 03:46:12;;;;;;;13.00;5.28;;;8.50;99.90;;;;;;4993815;28;20402;-79
2023/10/06 03:48:43;;;;;;;12.70;5.22;;;8.50;99.90;;;;;;4994794;28;20026;-79
2023/10/06 03:51:09;;;;;;;10.07;4.93;;;8.50;99.90;;;;;;4993199;28;20096;-79
2023/10/06 03:53:35;;;;;;;8.70;4.30;;;8.50;99.90;;;;;;4987334;28;20397;-78
2023/10/06 03:56:06;;;;;;;11.18;5.50;;;8.50;99.90;;;;;;4991878;28;20036;-77
2023/10/06 03:58:32;;;;;;;9.45;4.47;;;8.50;99.90;;;;;;4992231;28;20061;-78
2023/10/06 04:00:58;;;;;;;11.77;5.60;;;8.40;99.90;;;;;;4988980;28;20508;-77
2023/10/06 04:03:23;;;;;;;11.32;5.88;;;8.40;99.90;;;;;;4990732;28;20027;-78
2023/10/06 04:05:50;;;;;;;9.32;5.28;;;8.40;99.90;;;;;;4991185;28;20037;-78
2023/10/06 04:08:19;;;;;;;14.75;5.40;;;8.40;99.90;;;;;;4987903;28;20559;-79
2023/10/06 04:10:51;;;;;;;11.77;5.53;;;8.30;99.90;;;;;;4990503;28;20058;-78
2023/10/06 04:13:23;;;;;;;12.75;5.85;;;8.30;99.90;;;;;;4989532;28;20026;-79
2023/10/06 04:15:58;;;;;;;12.05;5.32;;;8.30;99.90;;;;;;4992345;28;20018;-79
2023/10/06 04:18:29;;;;;;;12.80;4.95;;;8.30;99.90;;;;;;4993543;28;20023;-79
2023/10/06 04:21:03;;;;;;;12.85;5.50;;;8.30;99.90;;;;;;4997882;28;20523;-79
2023/10/06 04:23:29;;;;;;;12.10;5.35;;;8.30;99.90;;;;;;4998362;28;20068;-79
2023/10/06 04:25:57;;;;;;;12.88;5.45;;;8.20;99.90;;;;;;4998704;28;20109;-78
2023/10/06 04:28:25;;;;;;;9.40;5.07;;;8.20;99.90;;;;;;4996900;28;20087;-79
2023/10/06 04:31:01;;;;;;;14.73;6.03;;;8.20;99.90;;;;;;4994763;28;20034;-78
2023/10/06 04:33:28;;;;;;;12.32;4.95;;;8.20;99.90;;;;;;4989683;28;20031;-77
2023/10/06 04:36:07;;;;;;;11.10;4.97;;;8.20;99.90;;;;;;4990227;28;20065;-79
2023/10/06 04:38:40;;;;;;;12.65;5.47;;;8.10;99.90;;;;;;4984337;28;20034;-78
2023/10/06 04:41:10;;;;;;;12.55;5.38;;;8.10;99.90;;;;;;4985931;28;20026;-79
2023/10/06 04:43:44;;;;;;;11.30;5.30;;;8.10;99.90;;;;;;4992374;28;20030;-78
2023/10/06 04:46:10;;;;;;;12.85;5.38;;;8.10;99.90;;;;;;4992083;28;20022;-70
2023/10/06 04:48:36;;;;;;;9.68;4.57;;;8.10;99.90;;;;;;4990173;28;20019;-70
2023/10/06 04:51:27;;;;;;;18.83;5.68;;;8.10;99.90;;;;;;4992729;28;20110;-71
2023/10/06 04:53:52;;;;;;;10.10;5.20;;;8.10;99.90;;;;;;4991710;28;20046;-71
2023/10/06 04:56:18;;;;;;;11.30;4.45;;;8.10;99.90;;;;;;4991404;28;20105;-71
2023/10/06 04:58:47;;;;;;;11.00;5.63;;;8.20;99.90;;;;;;4990498;28;20485;-72
2023/10/06 05:01:16;;;;;;;10.00;4.97;;;8.10;99.90;;;;;;4988248;28;20129;-70
2023/10/06 05:03:53;;;;;;;11.60;5.18;;;8.20;99.90;;;;;;4990288;28;20027;-70
2023/10/06 05:06:22;;;;;;;11.85;5.25;;;8.20;99.90;;;;;;4990818;28;20117;-70
2023/10/06 05:08:48;;;;;;;10.32;4.68;;;8.20;99.90;;;;;;4987280;28;20061;-71
2023/10/06 05:11:21;;;;;;;10.48;5.40;;;8.30;99.90;;;;;;4989874;28;20030;-72
2023/10/06 05:13:49;;;;;;;14.52;5.22;;;8.30;99.90;;;;;;4987468;28;20077;-72
2023/10/06 05:16:15;;;;;;;12.90;5.07;;;8.30;99.90;;;;;;4985232;28;20389;-72
2023/10/06 05:18:45;;;;;;;12.35;4.88;;;8.30;99.90;;;;;;4991211;28;20027;-72
2023/10/06 05:21:18;;;;;;;12.07;4.63;;;8.30;99.90;;;;;;4989286;28;20039;-71
2023/10/06 05:23:47;;;;;;;10.75;5.22;;;8.30;99.90;;;;;;4987409;28;20121;-71
2023/10/06 05:26:20;;;;;;;12.43;5.00;;;8.30;99.90;;;;;;4993836;28;20082;-71
2023/10/06 05:28:47;;;;;;;9.32;4.80;;;8.30;99.90;;;;;;4995993;28;20021;-78
2023/10/06 05:31:12;;;;;;;8.63;4.60;;;8.30;99.90;;;;;;4980690;28;20042;-77
2023/10/06 05:33:40;;;;;;;11.85;5.07;;;8.30;99.90;;;;;;4989265;28;20046;-78
2023/10/06 05:36:10;;;;;;;9.82;4.60;;;8.30;99.90;;;;;;4997923;28;20401;-78
2023/10/06 05:38:37;;;;;;;10.27;5.13;;;8.30;99.90;;;;;;4997277;28;20097;-77
2023/10/06 05:41:11;;;;;;;13.30;4.72;;;8.30;99.90;;;;;;4996804;28;20117;-78
2023/10/06 05:43:36;;;;;;;12.90;4.95;;;8.30;99.90;;;;;;4996010;28;20018;-78
2023/10/06 05:46:03;;;;;;;9.95;4.95;;;8.20;99.90;;;;;;4996643;28;20034;-77
2023/10/06 05:48:31;;;;;;;13.23;5.35;;;8.20;99.90;;;;;;4995531;28;20029;-78
2023/10/06 05:51:04;;;;;;;13.98;4.90;;;8.20;99.90;;;;;;4996547;28;20104;-78
2023/10/06 05:53:38;;;;;;;13.17;6.70;;;8.20;99.90;;;;;;4993510;28;20018;-78
2023/10/06 05:56:06;;;;;;;10.55;4.97;;;8.20;99.90;;;;;;4996212;28;20308;-76
2023/10/06 05:58:34;;;;;;;13.02;6.30;;;8.20;99.90;;;;;;4993898;28;20027;-78
2023/10/06 06:01:06;;;;;;;13.32;6.60;;;8.20;99.90;;;;;;4993330;28;20045;-77
2023/10/06 06:03:32;;;;;;;11.50;5.68;;;8.10;99.90;;;;;;4994221;28;20053;-77
2023/10/06 06:06:07;;;;;;;12.90;5.85;;;8.20;99.90;;;;;;4994813;28;20018;-77
2023/10/06 06:08:34;;;;;;;14.27;5.40;;;8.20;99.90;;;;;;4994960;28;20050;-78
2023/10/06 06:10:59;;;;;;;15.32;5.80;;;8.10;99.90;;;;;;4997267;28;20034;-77
2023/10/06 06:13:25;;;;;;;9.70;4.93;;;8.10;99.90;;;;;;4996778;28;20029;-76
2023/10/06 06:15:51;;;;;;;13.02;6.15;;;8.20;99.90;;;;;;4985272;28;20041;-77
2023/10/06 06:18:17;;;;;;;13.45;5.97;;;8.20;99.90;;;;;;4991577;28;20045;-78
2023/10/06 06:20:42;;;;;;;13.57;5.78;;;8.20;99.90;;;;;;4991818;28;20124;-78
2023/10/06 06:23:11;;;;;;;13.43;5.82;;;8.10;99.90;;;;;;4991855;28;20066;-78
2023/10/06 06:25:49;;;;;;;16.65;6.80;;;8.20;99.90;;;;;;4995617;28;20386;-77
2023/10/06 06:28:16;;;;;;;12.27;5.95;;;8.20;99.90;;;;;;4995937;28;20026;-78
2023/10/06 06:30:42;;;;;;;14.73;6.32;;;8.20;99.90;;;;;;4993777;28;20035;-78
2023/10/06 06:33:09;;;;;;;12.57;6.75;;;8.20;99.90;;;;;;4995670;28;20026;-76
2023/10/06 06:35:35;;;;;;;15.18;6.50;;;8.10;99.90;;;;;;4995428;28;20026;-77
2023/10/06 06:38:05;;;;;;;13.77;6.35;;;8.20;99.90;;;;;;4993862;28;20033;-78
2023/10/06 06:40:32;;;;;;;16.83;7.07;;;8.20;99.90;;;;;;4990409;28;20378;-77
2023/10/06 06:43:01;;;;;;;12.55;6.10;;;8.20;99.90;;;;;;4975225;28;20386;-78
2023/10/06 06:45:30;;;;;;;13.10;6.28;;;8.30;99.90;;;;;;4993651;28;20428;-79
2023/10/06 06:48:02;;;;;;;14.05;6.43;;;8.30;99.90;;;;;;4994393;28;20053;-80
2023/10/06 06:50:28;;;;;;;15.50;6.80;;;8.40;99.90;;;;;;4995518;28;20450;-77
2023/10/06 06:52:57;;;;;;;16.77;6.03;;;8.50;99.90;;;;;;4993649;28;20061;-79
2023/10/06 06:55:23;;;;;;;14.48;6.72;;;8.60;99.90;;;;;;4995592;28;20445;-76
2023/10/06 06:57:49;;;;;;;13.90;6.60;;;8.60;99.90;;;;;;4996046;28;20084;-77
2023/10/06 07:00:21;;;;;;;15.00;6.70;;;8.70;99.90;;;;;;4995549;28;20034;-79
2023/10/06 07:02:50;;;;;;;16.88;6.82;;;8.70;99.90;;;;;;4995729;28;20014;-78
2023/10/06 07:05:17;;;;;;;22.20;7.10;;;8.80;99.90;;;;;;4995504;28;20040;-79
2023/10/06 07:07:43;;;;;;;12.88;6.28;;;8.80;99.90;;;;;;4995106;28;20077;-77
2023/10/06 07:10:19;;;;;;;16.52;6.97;;;8.90;99.90;;;;;;4993374;28;20034;-78
2023/10/06 07:12:49;;;;;;;15.65;5.97;;;9.00;99.90;;;;;;4990840;28;20113;-79
2023/10/06 07:15:20;;;;;;;18.85;6.15;;;9.00;99.90;;;;;;5004025;28;20030;-77
2023/10/06 07:17:49;;;;;;;13.20;6.10;;;9.00;99.90;;;;;;4989569;28;20120;-77
2023/10/06 07:20:16;;;;;;;18.85;7.00;;;9.10;99.90;;;;;;4990554;28;20074;-77
2023/10/06 07:22:50;;;;;;;16.50;6.50;;;9.10;99.90;;;;;;5005617;28;20064;-78
2023/10/06 07:25:19;;;;;;;12.88;6.55;;;9.10;99.90;;;;;;4985113;28;20022;-77
2023/10/06 07:27:49;;;;;;;14.05;6.65;;;9.20;99.90;;;;;;4990780;28;20101;-77
2023/10/06 07:30:16;;;;;;;15.68;5.80;;;9.20;99.90;;;;;;4993041;28;20516;-78
2023/10/06 07:32:52;;;;;;;14.27;6.45;;;9.30;99.90;;;;;;4986677;28;20084;-76
2023/10/06 07:35:19;;;;;;;16.88;6.38;;;9.30;99.90;;;;;;4989579;28;20041;-78
2023/10/06 07:37:47;;;;;;;12.52;6.60;;;9.40;99.90;;;;;;4989769;28;20026;-78
2023/10/06 07:40:15;;;;;;;14.35;6.22;;;9.40;99.90;;;;;;4989203;28;20026;-78
2023/10/06 07:43:09;;;;;;;14.13;6.65;;;9.40;99.90;;;;;;4989643;28;20117;-77
2023/10/06 07:45:36;;;;;;;17.95;6.68;;;9.50;99.90;;;;;;4988084;28;20026;-77
2023/10/06 07:48:14;;;;;;;17.55;7.97;;;9.60;99.90;;;;;;4991929;28;20129;-78
2023/10/06 07:50:39;;;;;;;15.75;6.65;;;9.70;99.90;;;;;;4985789;28;20027;-79
2023/10/06 07:53:09;;;;;;;23.10;7.07;;;9.80;99.90;;;;;;5004062;28;20030;-78
2023/10/06 07:55:40;;;;;;;18.02;7.35;;;9.90;99.90;;;;;;4989722;28;20030;-77
2023/10/06 07:58:08;;;;;;;16.50;7.63;;;9.90;99.90;;;;;;4993260;28;20030;-78
2023/10/06 08:00:38;;;;;;;14.35;6.82;;;10.00;99.90;;;;;;4991401;28;20397;-78
2023/10/06 08:03:04;;;;;;;13.98;6.20;;;10.10;99.90;;;;;;4994123;28;20018;-79
2023/10/06 08:05:30;;;;;;;18.30;7.43;;;10.20;99.90;;;;;;4994467;28;20173;-77
2023/10/06 08:08:04;;;;;;;20.92;7.88;;;10.20;99.90;;;;;;4982693;28;20158;-77
2023/10/06 08:10:32;;;;;;;19.52;7.90;;;10.30;99.90;;;;;;4990627;28;20022;-77
2023/10/06 08:13:04;;;;;;;14.88;7.68;;;10.40;99.90;;;;;;4994845;28;20041;-79
2023/10/06 08:15:35;;;;;;;14.30;6.97;;;10.40;99.90;;;;;;4993273;28;20393;-77
2023/10/06 08:18:01;;;;;;;21.27;7.75;;;10.50;99.90;;;;;;4997890;28;20428;-77
2023/10/06 08:20:30;;;;;;;11.75;6.25;;;10.60;99.90;;;;;;4996101;28;20029;-78
2023/10/06 08:22:57;;;;;;;15.30;6.57;;;10.70;99.90;;;;;;4993485;28;20374;-78
2023/10/06 08:25:29;;;;;;;14.45;6.47;;;10.80;99.90;;;;;;4998042;28;20077;-79
2023/10/06 08:28:19;;;;;;;15.80;6.95;;;10.80;99.90;;;;;;4993650;28;20392;-78
2023/10/06 08:30:45;;;;;;;14.00;6.20;;;10.90;99.90;;;;;;4996338;28;20521;-78
2023/10/06 08:33:16;;;;;;;15.38;7.15;;;11.00;99.90;;;;;;4998163;28;20049;-76
2023/10/06 08:36:00;;;;;;;16.25;6.55;;;11.10;99.90;;;;;;4986864;28;20026;-77
2023/10/06 08:38:26;;;;;;;18.25;6.65;;;11.20;99.90;;;;;;4997455;28;20014;-79
2023/10/06 08:41:10;;;;;;;13.32;5.93;;;11.30;99.90;;;;;;4997673;28;20121;-78
2023/10/06 08:43:38;;;;;;;16.45;6.93;;;11.30;99.90;;;;;;4995602;28;20054;-78
2023/10/06 08:46:13;;;;;;;14.70;7.25;;;11.50;99.90;;;;;;4998373;28;20532;-78
2023/10/06 08:48:50;;;;;;;14.60;6.68;;;11.50;99.90;;;;;;4996212;28;20026;-76
2023/10/06 08:51:21;;;;;;;12.85;5.97;;;11.60;99.90;;;;;;4991848;28;20074;-78
2023/10/06 08:53:55;;;;;;;18.40;6.88;;;11.70;99.90;;;;;;4988906;28;20400;-77
2023/10/06 08:56:22;;;;;;;16.40;7.28;;;11.80;99.90;;;;;;4981964;28;20035;-77
2023/10/06 08:58:47;;;;;;;16.33;7.10;;;11.80;99.90;;;;;;4980383;28;20145;-77
2023/10/06 09:01:18;;;;;;;15.77;7.03;;;11.90;99.90;;;;;;4985376;28;20113;-77
2023/10/06 09:03:53;;;;;;;16.45;7.00;;;12.00;99.90;;;;;;4991075;28;20022;-77
2023/10/06 09:06:21;;;;;;;18.77;7.60;;;12.10;99.90;;;;;;4986672;28;20018;-77
2023/10/06 09:09:03;;;;;;;13.35;7.03;;;12.10;99.90;;;;;;4988312;28;20147;-77
2023/10/06 09:11:38;;;;;;;13.75;6.95;;;12.20;99.90;;;;;;4985321;28;20211;-77
2023/10/06 09:14:13;;;;;;;17.88;7.70;;;12.30;99.90;;;;;;4988033;28;20035;-77
2023/10/06 09:17:06;;;;;;;12.75;7.15;;;12.40;99.90;;;;;;4987691;28;20172;-77
2023/10/06 09:20:07;;;;;;;18.05;7.53;;;12.50;99.90;;;;;;4988946;28;20053;-77
2023/10/06 09:22:46;;;;;;;15.85;7.57;;;12.70;99.90;;;;;;4978021;28;20038;-77
2023/10/06 09:25:19;;;;;;;25.88;8.68;;;12.80;99.90;;;;;;4986412;28;20038;-77
2023/10/06 09:27:48;;;;;;;14.80;7.15;;;12.80;99.90;;;;;;4986623;28;20393;-77
2023/10/06 09:30:20;;;;;;;15.95;8.02;;;12.90;99.90;;;;;;4983836;28;20108;-77
2023/10/06 09:32:46;;;;;;;17.15;7.47;;;13.00;99.90;;;;;;4985418;28;20026;-77
2023/10/06 09:35:19;;;;;;;11.63;6.95;;;13.10;99.90;;;;;;4988563;28;20034;-77
2023/10/06 09:37:49;;;;;;;18.77;7.20;;;13.20;99.90;;;;;;4985007;28;20139;-77
2023/10/06 09:40:23;;;;;;;17.23;8.60;;;13.30;99.90;;;;;;4982757;28;20133;-78
2023/10/06 09:42:54;;;;;;;20.00;7.25;;;13.30;99.90;;;;;;4987695;28;20034;-78
2023/10/06 09:45:30;;;;;;;20.00;8.30;;;13.40;99.90;;;;;;4981603;28;20498;-77
2023/10/06 09:48:05;;;;;;;19.65;8.35;;;13.50;99.90;;;;;;4987921;28;20034;-77
2023/10/06 09:50:32;;;;;;;11.90;8.10;;;13.60;99.90;;;;;;4987907;28;20026;-77
2023/10/06 09:53:03;;;;;;;13.68;7.90;;;13.70;99.90;;;;;;4987179;28;20023;-78
2023/10/06 09:55:30;;;;;;;15.60;8.30;;;13.70;99.90;;;;;;4986186;28;20402;-77
2023/10/06 09:57:57;;;;;;;16.60;8.27;;;13.80;99.90;;;;;;4989518;28;20034;-77
2023/10/06 10:00:30;;;;;;;17.52;7.10;;;13.90;99.90;;;;;;4988065;28;20054;-77
2023/10/06 10:03:00;;;;;;;15.77;7.25;;;14.10;99.90;;;;;;4987595;28;20072;-77
2023/10/06 10:05:29;;;;;;;12.15;6.88;;;14.10;99.90;;;;;;4987949;28;20042;-77
2023/10/06 10:07:55;;;;;;;17.52;6.85;;;14.30;99.90;;;;;;4987370;28;20378;-77
2023/10/06 10:10:27;;;;;;;13.13;6.60;;;14.40;99.90;;;;;;4987156;28;20037;-77
2023/10/06 10:13:19;;;;;;;20.65;7.40;;;14.40;99.90;;;;;;4987763;28;20030;-78
2023/10/06 10:16:13;;;;;;;13.90;6.53;;;14.50;99.90;;;;;;5001688;28;20057;-77
2023/10/06 10:18:44;;;;;;;15.93;7.03;;;14.60;99.90;;;;;;4989833;28;20034;-77
2023/10/06 10:21:11;;;;;;;13.65;7.13;;;14.70;99.90;;;;;;5004012;28;20022;-77
2023/10/06 10:23:43;;;;;;;12.38;6.03;;;14.80;99.90;;;;;;4989911;28;20037;-77
2023/10/06 10:26:28;;;;;;;22.85;7.32;;;14.80;99.90;;;;;;4987249;28;20035;-77
2023/10/06 10:29:24;;;;;;;;;;;14.90;99.90;;;;;;4988098;28;20065;-77
2023/10/06 10:32:29;;;;;;;14.48;6.47;;;14.90;99.90;;;;;;4985382;28;20266;-77
2023/10/06 10:35:16;;;;;;;16.25;6.25;;;15.10;99.90;;;;;;4987313;28;20038;-77
2023/10/06 10:38:06;;;;;;;13.02;5.47;;;15.30;99.90;;;;;;4979426;28;20096;-77
2023/10/06 10:41:06;;;;;;;17.90;6.72;;;15.40;99.90;;;;;;5000424;28;20030;-77
2023/10/06 10:43:32;;;;;;;14.80;6.82;;;15.50;99.90;;;;;;4983809;28;20018;-78
2023/10/06 10:45:59;;;;;;;14.50;5.82;;;15.60;99.90;;;;;;4982654;28;20069;-77
2023/10/06 10:48:52;;;;;;;15.00;5.45;;;15.70;99.90;;;;;;4990783;28;20026;-77
2023/10/06 10:51:47;;;;;;;14.83;5.30;;;15.70;99.90;;;;;;4983120;28;20033;-78
2023/10/06 10:54:21;;;;;;;9.77;5.55;;;15.80;99.90;;;;;;4986375;28;20045;-77
2023/10/06 10:56:53;;;;;;;17.27;5.65;;;15.90;99.90;;;;;;4989444;28;20054;-77
2023/10/06 10:59:22;;;;;;;11.98;5.43;;;16.00;99.90;;;;;;4987532;28;20061;-77
2023/10/06 11:01:53;;;;;;;13.07;4.60;;;16.00;99.90;;;;;;4984105;28;20030;-78
2023/10/06 11:04:35;;;;;;;14.75;4.93;;;16.10;99.90;;;;;;4989993;28;20385;-77
2023/10/06 11:07:16;;;;;;;11.88;5.82;;;16.20;99.90;;;;;;4991741;28;20466;-77
2023/10/06 11:09:47;;;;;;;9.73;4.85;;;16.30;99.90;;;;;;4989690;28;20030;-78
2023/10/06 11:12:20;;;;;;;12.77;4.72;;;16.40;99.90;;;;;;4988076;28;20030;-78
2023/10/06 11:14:49;;;;;;;10.00;4.90;;;16.40;99.90;;;;;;4990088;28;20039;-78
2023/10/06 11:17:21;;;;;;;9.75;4.10;;;16.50;99.90;;;;;;4987479;28;20022;-77
2023/10/06 11:20:00;;;;;;;8.90;3.45;;;16.50;99.50;;;;;;4987958;28;20030;-78
2023/10/06 11:22:29;;;;;;;9.77;3.85;;;16.60;98.90;;;;;;4987627;28;20416;-77
2023/10/06 11:25:02;;;;;;;8.02;3.33;;;16.60;99.10;;;;;;4986619;28;20027;-77
2023/10/06 11:27:28;;;;;;;10.95;3.50;;;16.70;98.60;;;;;;4987179;28;20029;-78
2023/10/06 11:30:07;;;;;;;6.97;3.60;;;16.70;98.20;;;;;;4986307;28;20400;-77
2023/10/06 11:32:48;;;;;;;6.05;3.25;;;16.80;98.10;;;;;;4984508;28;20041;-78
2023/10/06 11:35:17;;;;;;;9.25;3.90;;;16.80;97.40;;;;;;4983687;28;20045;-78
2023/10/06 11:37:49;;;;;;;9.00;3.20;;;16.80;97.20;;;;;;4987683;28;20067;-78
2023/10/06 11:40:15;;;;;;;6.85;3.40;;;16.90;97.50;;;;;;4985216;28;20054;-78
2023/10/06 11:42:47;;;;;;;7.72;3.55;;;16.90;97.70;;;;;;4987516;28;20524;-78
2023/10/06 11:45:27;;;;;;;15.25;4.40;;;17.00;96.40;;;;;;4984958;28;20036;-77
2023/10/06 11:47:54;;;;;;;13.00;5.15;;;17.10;96.00;;;;;;4989180;28;20041;-78
2023/10/06 11:50:23;;;;;;;8.38;3.97;;;17.20;95.50;;;;;;4981375;28;20023;-78
2023/10/06 11:53:19;;;;;;;6.53;3.55;;;17.30;95.00;;;;;;4988353;28;20038;-78
2023/10/06 11:56:10;;;;;;;8.95;3.60;;;17.40;95.40;;;;;;4990136;28;20030;-77
2023/10/06 11:58:36;;;;;;;10.63;4.00;;;17.40;95.00;;;;;;4988596;28;20035;-78
2023/10/06 12:01:06;;;;;;;9.82;3.33;;;17.40;94.70;;;;;;4984708;28;20485;-77
2023/10/06 12:03:42;;;;;;;8.50;3.13;;;17.40;94.10;;;;;;4989616;28;20463;-78
2023/10/06 12:06:11;;;;;;;7.50;3.25;;;17.50;92.90;;;;;;4991805;28;20031;-77
2023/10/06 12:08:59;;;;;;;9.27;4.07;;;17.50;91.20;;;;;;4988441;28;20045;-78
2023/10/06 12:11:25;;;;;;;9.80;3.92;;;17.60;90.90;;;;;;4992581;28;20496;-77
2023/10/06 12:13:52;;;;;;;8.55;3.30;;;17.70;91.20;;;;;;4990070;28;20034;-78
2023/10/06 12:16:18;;;;;;;8.88;3.95;;;17.80;90.60;;;;;;4990689;28;20030;-78
2023/10/06 12:18:46;;;;;;;8.60;3.45;;;18.00;89.40;;;;;;4987456;28;20477;-78
2023/10/06 12:21:14;;;;;;;9.38;4.07;;;18.10;88.20;;;;;;4987876;28;20434;-78
2023/10/06 12:23:48;;;;;;;8.07;4.18;;;18.10;86.10;;;;;;4991883;28;20060;-78
2023/10/06 12:26:14;;;;;;;9.30;4.72;;;18.20;84.30;;;;;;4986962;28;20026;-78
2023/10/06 12:28:42;;;;;;;9.60;4.65;;;18.30;83.80;;;;;;4987909;28;20038;-78
2023/10/06 12:31:11;;;;;;;8.95;3.92;;;18.40;83.60;;;;;;4990000;28;20081;-78
2023/10/06 12:33:38;;;;;;;10.63;3.70;;;18.40;82.90;;;;;;5006901;28;20038;-78
2023/10/06 12:36:08;;;;;;;10.43;5.13;;;18.40;82.80;;;;;;4992059;28;20030;-78
2023/10/06 12:38:40;;;;;;;10.00;4.28;;;18.50;82.60;;;;;;4990661;28;20058;-78
2023/10/06 12:41:21;;;;;;;8.68;4.50;;;18.60;82.90;;;;;;4989541;28;20038;-77
2023/10/06 12:43:47;;;;;;;11.13;3.88;;;18.70;82.80;;;;;;4988853;28;20381;-78
2023/10/06 12:46:13;;;;;;;11.45;4.20;;;18.70;82.60;;;;;;4990661;28;20033;-77
2023/10/06 12:48:39;;;;;;;8.27;4.32;;;18.70;83.20;;;;;;4991447;28;20056;-78
2023/10/06 12:51:06;;;;;;;8.98;3.92;;;18.70;82.00;;;;;;4990664;28;20030;-77
2023/10/06 12:53:33;;;;;;;9.35;3.83;;;18.70;81.70;;;;;;4984798;28;20493;-77
2023/10/06 12:56:05;;;;;;;11.82;4.75;;;18.70;81.90;;;;;;4990215;28;20046;-78
2023/10/06 12:58:33;;;;;;;10.52;4.53;;;18.70;82.00;;;;;;4990383;28;20030;-78
2023/10/06 13:00:59;;;;;;;8.98;3.70;;;18.70;81.80;;;;;;4987879;28;20062;-78
2023/10/06 13:03:25;;;;;;;7.43;3.83;;;18.80;81.50;;;;;;4987819;28;20046;-78
2023/10/06 13:05:51;;;;;;;8.00;3.80;;;18.90;80.00;;;;;;4987239;28;20022;-77
2023/10/06 13:08:20;;;;;;;7.47;3.50;;;18.90;80.20;;;;;;4989248;28;20015;-78
2023/10/06 13:10:47;;;;;;;11.75;4.47;;;19.00;80.30;;;;;;4990636;28;20133;-78
2023/10/06 13:13:16;;;;;;;7.90;3.50;;;19.00;78.10;;;;;;4993406;28;20042;-78
2023/10/06 13:15:47;;;;;;;11.82;3.33;;;19.00;77.60;;;;;;4990416;28;20539;-78
2023/10/06 13:18:16;;;;;;;6.95;3.05;;;19.10;75.70;;;;;;4994281;28;20034;-78
2023/10/06 13:20:46;;;;;;;6.60;3.13;;;19.00;75.90;;;;;;4989630;28;20482;-78
2023/10/06 13:23:11;;;;;;;8.23;4.05;;;19.10;75.20;;;;;;4990122;28;20019;-78
2023/10/06 13:25:37;;;;;;;8.52;3.75;;;19.10;75.00;;;;;;4992081;28;20511;-78